createdAt,value
2023-05-04T00:01:07.470Z,10.33
2023-05-04T00:03:41.660Z,6.10
2023-05-04T00:06:15.428Z,7.80
2023-05-04T00:08:49.418Z,10.17
2023-05-04T00:11:25.602Z,7.77
2023-05-04T00:13:59.451Z,12.53
2023-05-04T00:16:33.437Z,16.03
2023-05-04T00:19:07.484Z,8.37
2023-05-04T00:21:37.096Z,7.27
2023-05-04T00:24:04.513Z,7.30
2023-05-04T00:26:38.436Z,10.33
2023-05-04T00:29:18.452Z,11.40
2023-05-04T00:31:45.601Z,8.07
2023-05-04T00:34:20.474Z,10.50
2023-05-04T00:36:54.459Z,11.03
2023-05-04T00:39:27.461Z,9.50
2023-05-04T00:42:01.496Z,10.50
2023-05-04T00:44:35.457Z,7.90
2023-05-04T00:47:10.514Z,7.73
2023-05-04T00:49:44.472Z,10.97
2023-05-04T00:52:21.530Z,7.07
2023-05-04T00:54:56.448Z,9.17
2023-05-04T00:57:30.467Z,9.20
2023-05-04T01:00:04.669Z,9.13
2023-05-04T01:02:38.537Z,12.13
2023-05-04T01:05:25.606Z,9.47
2023-05-04T01:08:04.218Z,9.43
2023-05-04T01:10:53.479Z,11.03
2023-05-04T01:13:29.476Z,7.77
2023-05-04T01:16:03.485Z,9.80
2023-05-04T01:18:31.237Z,9.10
2023-05-04T01:21:04.474Z,9.00
2023-05-04T01:23:31.495Z,13.40
2023-05-04T01:26:32.423Z,11.30
2023-05-04T01:29:22.365Z,12.20
2023-05-04T01:31:59.482Z,12.90
2023-05-04T01:34:33.436Z,12.13
2023-05-04T01:37:07.508Z,10.33
2023-05-04T01:39:34.624Z,21.53
2023-05-04T01:42:08.496Z,11.13
2023-05-04T01:44:37.063Z,9.03
2023-05-04T01:47:11.476Z,12.23
2023-05-04T01:49:38.578Z,12.70
2023-05-04T01:52:12.455Z,10.43
2023-05-04T01:54:39.572Z,9.63
2023-05-04T01:57:13.474Z,9.40
2023-05-04T01:59:40.504Z,10.07
2023-05-04T02:02:14.507Z,11.43
2023-05-04T02:04:48.487Z,10.97
2023-05-04T02:07:22.075Z,13.63
2023-05-04T02:09:57.481Z,11.90
2023-05-04T02:12:24.554Z,12.70
2023-05-04T02:14:58.500Z,10.57
2023-05-04T02:17:32.487Z,9.87
2023-05-04T02:20:06.838Z,11.70
2023-05-04T02:22:41.468Z,11.23
2023-05-04T02:25:08.929Z,12.97
2023-05-04T02:27:42.522Z,11.43
2023-05-04T02:30:17.466Z,11.77
2023-05-04T02:32:51.445Z,14.53
2023-05-04T02:35:26.506Z,10.50
2023-05-04T02:38:00.448Z,11.53
2023-05-04T02:40:34.444Z,12.37
2023-05-04T02:43:08.499Z,14.77
2023-05-04T02:45:42.517Z,12.37
2023-05-04T02:48:16.462Z,14.77
2023-05-04T02:50:53.483Z,13.93
2023-05-04T02:53:20.766Z,12.70
2023-05-04T02:55:54.504Z,16.63
2023-05-04T02:58:21.665Z,15.20
2023-05-04T03:01:00.568Z,14.37
2023-05-04T03:03:29.121Z,15.23
2023-05-04T03:06:10.488Z,16.30
2023-05-04T03:08:39.324Z,14.20
2023-05-04T03:11:13.474Z,17.47
2023-05-04T03:13:48.571Z,17.90
2023-05-04T03:16:23.555Z,14.87
2023-05-04T03:18:59.838Z,16.33
2023-05-04T03:21:33.509Z,18.27
2023-05-04T03:24:00.698Z,19.07
2023-05-04T03:26:34.526Z,19.63
2023-05-04T03:29:08.498Z,16.07
2023-05-04T03:31:42.564Z,16.50
2023-05-04T03:34:19.496Z,17.33
2023-05-04T03:36:55.466Z,18.90
2023-05-04T03:39:22.842Z,22.47
2023-05-04T03:41:50.005Z,17.10
2023-05-04T03:44:23.594Z,19.80
2023-05-04T03:46:51.910Z,23.53
2023-05-04T03:49:25.502Z,20.90
2023-05-04T03:51:59.453Z,22.70
2023-05-04T03:54:33.526Z,21.10
2023-05-04T03:57:08.465Z,20.33
2023-05-04T03:59:42.604Z,20.03
2023-05-04T04:02:09.798Z,21.73
2023-05-04T04:04:45.830Z,25.67
2023-05-04T04:07:19.145Z,26.33
2023-05-04T04:09:53.476Z,22.67
2023-05-04T04:12:27.521Z,24.50
2023-05-04T04:15:01.514Z,23.77
2023-05-04T04:17:35.570Z,26.17
2023-05-04T04:20:02.916Z,24.80
2023-05-04T04:22:36.556Z,25.47
2023-05-04T04:25:04.281Z,24.53
2023-05-04T04:27:38.550Z,24.67
2023-05-04T04:30:18.032Z,26.47
2023-05-04T04:32:45.874Z,23.27
2023-05-04T04:35:20.526Z,27.97
2023-05-04T04:37:47.597Z,26.27
2023-05-04T04:40:22.498Z,24.23
2023-05-04T04:42:49.624Z,27.23
2023-05-04T04:45:23.536Z,27.43
2023-05-04T04:47:58.497Z,24.47
2023-05-04T04:50:32.507Z,25.37
2023-05-04T04:53:01.076Z,26.50
2023-05-04T04:55:35.532Z,22.37
2023-05-04T04:58:02.668Z,20.10
2023-05-04T05:00:37.527Z,22.87
2023-05-04T05:03:11.557Z,23.20
2023-05-04T05:05:45.510Z,20.80
2023-05-04T05:08:19.635Z,23.77
2023-05-04T05:10:53.536Z,21.57
2023-05-04T05:13:20.701Z,23.90
2023-05-04T05:15:54.487Z,22.17
2023-05-04T05:18:28.539Z,20.37
2023-05-04T05:20:56.702Z,21.83
2023-05-04T05:23:23.882Z,20.07
2023-05-04T05:26:12.516Z,20.43
2023-05-04T05:28:55.766Z,20.63
2023-05-04T05:31:29.572Z,18.40
2023-05-04T05:33:56.922Z,20.20
2023-05-04T05:36:30.539Z,19.83
2023-05-04T05:39:00.152Z,20.13
2023-05-04T05:41:34.550Z,20.87
2023-05-04T05:44:08.601Z,19.63
2023-05-04T05:46:42.576Z,17.15
2023-05-04T05:49:16.546Z,18.50
2023-05-04T05:51:50.562Z,18.45
2023-05-04T05:54:20.079Z,19.00
2023-05-04T05:56:47.261Z,16.98
2023-05-04T05:59:22.530Z,17.08
2023-05-04T06:01:56.592Z,19.02
2023-05-04T06:04:23.756Z,16.10
2023-05-04T06:07:03.489Z,14.18
2023-05-04T06:09:37.515Z,14.20
2023-05-04T06:12:07.172Z,16.48
2023-05-04T06:14:43.546Z,14.63
2023-05-04T06:17:17.569Z,13.93
2023-05-04T06:19:48.761Z,14.90
2023-05-04T06:22:24.515Z,16.92
2023-05-04T06:24:52.912Z,17.00
2023-05-04T06:27:27.544Z,12.55
2023-05-04T06:29:56.202Z,11.52
2023-05-04T06:32:29.512Z,11.20
2023-05-04T06:34:57.048Z,14.40
2023-05-04T06:37:30.549Z,11.68
2023-05-04T06:39:57.824Z,11.75
2023-05-04T06:42:31.561Z,13.35
2023-05-04T06:44:58.808Z,13.77
2023-05-04T06:47:32.566Z,12.35
2023-05-04T06:49:59.980Z,10.43
2023-05-04T06:52:36.548Z,11.82
2023-05-04T06:55:03.900Z,9.40
2023-05-04T06:57:37.531Z,10.40
2023-05-04T07:00:06.533Z,9.60
2023-05-04T07:02:40.540Z,10.15
2023-05-04T07:05:14.780Z,9.57
2023-05-04T07:07:55.568Z,9.40
2023-05-04T07:10:29.549Z,12.30
2023-05-04T07:13:03.630Z,9.13
2023-05-04T07:15:33.474Z,10.75
2023-05-04T07:18:07.649Z,10.20
2023-05-04T07:20:34.835Z,9.10
2023-05-04T07:23:08.517Z,9.43
2023-05-04T07:25:35.730Z,11.27
2023-05-04T07:28:09.554Z,8.88
2023-05-04T07:30:43.773Z,8.65
2023-05-04T07:33:17.537Z,12.43
2023-05-04T07:35:51.533Z,7.93
2023-05-04T07:38:25.558Z,8.40
2023-05-04T07:40:54.615Z,8.63
2023-05-04T07:43:28.783Z,10.50
2023-05-04T07:45:56.722Z,9.88
2023-05-04T07:48:30.612Z,8.93
2023-05-04T07:50:57.881Z,13.13
2023-05-04T07:53:32.557Z,8.70
2023-05-04T07:56:09.960Z,9.75
2023-05-04T07:58:43.525Z,7.75
2023-05-04T08:01:10.724Z,8.73
2023-05-04T08:03:38.383Z,7.85
2023-05-04T08:06:11.581Z,7.70
2023-05-04T08:08:53.569Z,9.90
2023-05-04T08:11:27.587Z,9.60
2023-05-04T08:13:56.155Z,9.30
2023-05-04T08:16:29.636Z,9.13
2023-05-04T08:18:57.510Z,8.48
2023-05-04T08:21:31.586Z,10.20
2023-05-04T08:23:58.784Z,8.68
2023-05-04T08:26:26.735Z,9.48
2023-05-04T08:29:00.599Z,9.45
2023-05-04T08:31:34.619Z,6.55
2023-05-04T08:34:08.745Z,6.70
2023-05-04T08:36:35.917Z,6.75
2023-05-04T08:39:10.651Z,5.95
2023-05-04T08:41:41.152Z,5.43
2023-05-04T08:44:17.549Z,7.68
2023-05-04T08:46:52.590Z,5.32
2023-05-04T08:49:31.624Z,5.00
2023-05-04T08:52:07.563Z,5.70
2023-05-04T08:54:36.682Z,5.75
2023-05-04T08:57:11.637Z,6.07
2023-05-04T08:59:45.565Z,5.25
2023-05-04T09:02:20.578Z,4.63
2023-05-04T09:04:54.580Z,5.95
2023-05-04T09:07:28.211Z,4.78
2023-05-04T09:10:03.555Z,4.63
2023-05-04T09:12:31.579Z,5.45
2023-05-04T09:15:08.601Z,4.20
2023-05-04T09:17:39.698Z,6.13
2023-05-04T09:20:19.571Z,14.63
2023-05-04T09:22:53.564Z,5.03
2023-05-04T09:25:20.566Z,4.70
2023-05-04T09:28:01.569Z,4.93
2023-05-04T09:30:35.561Z,4.22
2023-05-04T09:33:03.437Z,3.95
2023-05-04T09:35:37.654Z,8.70
2023-05-04T09:38:11.703Z,8.15
2023-05-04T09:40:42.373Z,4.80
2023-05-04T09:43:20.154Z,2.92
2023-05-04T09:45:49.167Z,4.28
2023-05-04T09:48:35.628Z,3.90
2023-05-04T09:51:03.603Z,3.40
2023-05-04T09:53:39.620Z,2.97
2023-05-04T09:56:51.616Z,3.78
2023-05-04T09:59:27.605Z,3.95
2023-05-04T10:01:54.937Z,3.33
2023-05-04T10:04:29.726Z,3.90
2023-05-04T10:07:03.692Z,2.90
2023-05-04T10:09:38.661Z,3.03
2023-05-04T10:12:12.651Z,3.63
2023-05-04T10:14:46.738Z,3.55
2023-05-04T10:17:58.207Z,5.03
2023-05-04T10:21:04.586Z,2.90
2023-05-04T10:24:24.637Z,3.10
2023-05-04T10:27:23.673Z,3.55
2023-05-04T10:29:58.665Z,3.90
2023-05-04T10:32:32.647Z,3.25
2023-05-04T10:35:14.576Z,4.45
2023-05-04T10:37:54.620Z,3.22
2023-05-04T10:40:46.651Z,5.15
2023-05-04T10:43:26.196Z,2.67
2023-05-04T10:45:59.717Z,3.38
2023-05-04T10:48:36.965Z,2.83
2023-05-04T10:51:11.623Z,3.85
2023-05-04T10:53:45.608Z,2.92
2023-05-04T10:56:28.029Z,3.97
2023-05-04T10:59:02.653Z,2.97
2023-05-04T11:01:36.677Z,3.40
2023-05-04T11:04:04.129Z,2.55
2023-05-04T11:06:44.646Z,5.65
2023-05-04T11:09:24.680Z,3.90
2023-05-04T11:12:03.628Z,3.10
2023-05-04T11:14:37.826Z,4.85
2023-05-04T11:19:58.649Z,2.72
2023-05-04T11:22:25.716Z,5.75
2023-05-04T11:24:59.680Z,2.90
2023-05-04T11:27:37.628Z,2.83
2023-05-04T11:30:12.692Z,3.70
2023-05-04T11:32:53.702Z,6.38
2023-05-04T11:35:31.665Z,3.25
2023-05-04T11:37:58.866Z,4.15
2023-05-04T11:40:34.672Z,3.28
2023-05-04T11:43:04.369Z,3.40
2023-05-04T11:45:41.679Z,2.58
2023-05-04T11:48:10.309Z,3.10
2023-05-04T11:50:44.664Z,3.03
2023-05-04T11:53:13.930Z,3.20
2023-05-04T11:55:48.655Z,3.45
2023-05-04T11:58:23.416Z,3.13
2023-05-04T12:01:03.677Z,3.95
2023-05-04T12:03:51.381Z,2.75
2023-05-04T12:06:39.669Z,2.95
2023-05-04T12:09:13.679Z,2.38
2023-05-04T12:11:47.657Z,2.35
2023-05-04T12:14:14.778Z,4.30
2023-05-04T12:16:49.680Z,4.40
2023-05-04T12:19:17.044Z,2.55
2023-05-04T12:22:01.648Z,3.22
2023-05-04T12:24:35.725Z,2.85
2023-05-04T12:27:09.773Z,4.05
2023-05-04T12:29:43.707Z,3.53
2023-05-04T12:32:18.743Z,2.67
2023-05-04T12:34:46.241Z,2.75
2023-05-04T12:37:19.660Z,4.93
2023-05-04T12:39:46.690Z,2.83
2023-05-04T12:42:13.776Z,2.38
2023-05-04T12:44:47.624Z,2.00
2023-05-04T12:47:15.431Z,2.55
2023-05-04T12:49:50.102Z,5.38
2023-05-04T12:52:17.260Z,2.33
2023-05-04T12:54:50.640Z,3.70
2023-05-04T12:57:17.807Z,4.80
2023-05-04T12:59:51.679Z,2.30
2023-05-04T13:02:26.144Z,3.20
2023-05-04T13:04:53.801Z,2.40
2023-05-04T13:07:33.690Z,3.63
2023-05-04T13:10:01.592Z,4.15
2023-05-04T13:12:34.723Z,2.30
2023-05-04T13:15:01.866Z,2.80
2023-05-04T13:17:40.762Z,3.35
2023-05-04T13:20:13.660Z,3.15
2023-05-04T13:22:47.688Z,2.30
2023-05-04T13:25:15.217Z,2.40
2023-05-04T13:27:48.755Z,2.47
2023-05-04T13:30:24.693Z,4.15
2023-05-04T13:32:58.814Z,4.53
2023-05-04T13:35:32.671Z,2.40
2023-05-04T13:38:06.721Z,2.33
2023-05-04T13:40:40.685Z,2.97
2023-05-04T13:43:07.797Z,2.72
2023-05-04T13:45:41.699Z,3.75
2023-05-04T13:48:08.900Z,3.85
2023-05-04T13:50:42.705Z,2.92
2023-05-04T13:53:19.788Z,3.53
2023-05-04T13:55:54.062Z,2.85
2023-05-04T13:58:24.858Z,2.97
2023-05-04T14:01:03.024Z,2.17
2023-05-04T14:03:38.807Z,5.70
2023-05-04T14:06:19.774Z,2.35
2023-05-04T14:08:54.588Z,3.65
2023-05-04T14:11:30.049Z,2.25
2023-05-04T14:14:05.130Z,3.35
2023-05-04T14:16:34.037Z,4.90
2023-05-04T14:19:09.903Z,2.55
2023-05-04T14:21:37.568Z,2.25
2023-05-04T14:24:05.361Z,2.92
2023-05-04T14:26:39.819Z,2.85
2023-05-04T14:29:08.709Z,5.47
2023-05-04T14:31:44.882Z,3.35
2023-05-04T14:34:12.805Z,3.67
2023-05-04T14:36:40.371Z,4.07
2023-05-04T14:39:14.776Z,3.78
2023-05-04T14:41:42.346Z,2.15
2023-05-04T14:44:16.889Z,3.33
2023-05-04T14:46:44.373Z,2.63
2023-05-04T14:49:34.943Z,4.20
2023-05-04T14:52:10.877Z,2.53
2023-05-04T14:54:38.611Z,2.63
2023-05-04T14:57:16.160Z,2.03
2023-05-04T14:59:51.002Z,3.20
2023-05-04T15:02:19.463Z,7.22
2023-05-04T15:04:53.920Z,2.70
2023-05-04T15:07:27.865Z,2.35
2023-05-04T15:10:08.182Z,3.13
2023-05-04T15:12:44.060Z,7.93
2023-05-04T15:15:13.437Z,2.97
2023-05-04T15:17:47.816Z,5.03
2023-05-04T15:20:16.548Z,3.45
2023-05-04T15:22:59.823Z,1.98
2023-05-04T15:25:33.899Z,3.08
2023-05-04T15:28:07.794Z,6.45
2023-05-04T15:30:41.794Z,7.15
2023-05-04T15:33:22.790Z,21.40
2023-05-04T15:35:56.772Z,3.10
2023-05-04T15:38:32.958Z,2.03
2023-05-04T15:41:07.173Z,2.08
2023-05-04T15:43:34.695Z,3.13
2023-05-04T15:46:08.829Z,2.60
2023-05-04T15:48:42.843Z,2.85
2023-05-04T15:51:19.905Z,2.20
2023-05-04T15:53:47.429Z,2.25
2023-05-04T15:56:15.743Z,3.80
2023-05-04T15:58:51.821Z,5.80
2023-05-04T16:01:25.805Z,9.27
2023-05-04T16:04:05.821Z,12.95
2023-05-04T16:06:52.823Z,9.30
2023-05-04T16:09:27.952Z,3.53
2023-05-04T16:12:01.888Z,3.20
2023-05-04T16:14:36.957Z,3.88
2023-05-04T16:17:11.056Z,31.08
2023-05-04T16:19:44.878Z,2.40
2023-05-04T16:22:18.815Z,10.52
2023-05-04T16:24:53.839Z,3.03
2023-05-04T16:27:30.856Z,14.65
2023-05-04T16:30:05.406Z,3.50
2023-05-04T16:32:33.087Z,9.00
2023-05-04T16:35:06.853Z,5.05
2023-05-04T16:37:43.819Z,2.63
2023-05-04T16:40:22.042Z,3.35
2023-05-04T16:42:55.927Z,3.30
2023-05-04T16:45:31.866Z,2.25
2023-05-04T16:47:59.692Z,5.38
2023-05-04T16:50:33.798Z,3.83
2023-05-04T16:53:07.832Z,2.63
2023-05-04T16:55:42.832Z,2.30
2023-05-04T16:58:16.805Z,2.90
2023-05-04T17:00:51.094Z,4.45
2023-05-04T17:03:18.638Z,4.63
2023-05-04T17:05:52.831Z,4.28
2023-05-04T17:08:26.554Z,3.45
2023-05-04T17:11:06.785Z,4.18
2023-05-04T17:13:40.941Z,2.92
2023-05-04T17:16:16.913Z,5.05
2023-05-04T17:18:46.411Z,4.03
2023-05-04T17:21:19.809Z,7.65
2023-05-04T17:23:46.890Z,4.30
2023-05-04T17:26:20.800Z,2.95
2023-05-04T17:28:54.818Z,3.00
2023-05-04T17:31:21.878Z,5.47
2023-05-04T17:33:55.775Z,2.88
2023-05-04T17:36:23.927Z,7.30
2023-05-04T17:38:57.806Z,9.38
2023-05-04T17:41:25.267Z,5.00
2023-05-04T17:44:03.795Z,4.47
2023-05-04T17:46:40.308Z,4.45
2023-05-04T17:49:16.941Z,3.40
2023-05-04T17:51:45.467Z,2.25
2023-05-04T17:54:22.056Z,2.92
2023-05-04T17:56:49.098Z,2.95
2023-05-04T17:59:23.820Z,3.42
2023-05-04T18:01:50.840Z,3.58
2023-05-04T18:04:25.810Z,5.15
2023-05-04T18:06:59.887Z,1.90
2023-05-04T18:09:40.798Z,2.25
2023-05-04T18:12:09.254Z,3.08
2023-05-04T18:14:42.778Z,5.03
2023-05-04T18:17:15.791Z,2.58
2023-05-04T18:19:49.786Z,3.30
2023-05-04T18:22:18.407Z,4.70
2023-05-04T18:24:55.827Z,3.92
2023-05-04T18:27:22.929Z,6.05
2023-05-04T18:29:56.865Z,4.90
2023-05-04T18:32:32.008Z,6.53
2023-05-04T18:34:59.117Z,7.32
2023-05-04T18:37:32.798Z,6.10
2023-05-04T18:40:00.581Z,3.63
2023-05-04T18:42:33.836Z,3.05
2023-05-04T18:45:02.455Z,9.65
2023-05-04T18:47:37.861Z,5.95
2023-05-04T18:50:06.307Z,6.15
2023-05-04T18:52:40.835Z,4.63
2023-05-04T18:55:10.387Z,4.72
2023-05-04T18:57:44.812Z,5.05
2023-05-04T19:00:24.850Z,4.63
2023-05-04T19:02:51.984Z,6.27
2023-05-04T19:05:25.827Z,3.60
2023-05-04T19:08:06.769Z,3.22
2023-05-04T19:10:35.085Z,4.32
2023-05-04T19:13:08.864Z,6.60
2023-05-04T19:15:42.812Z,5.60
2023-05-04T19:18:16.879Z,4.57
2023-05-04T19:20:50.785Z,4.63
2023-05-04T19:23:19.261Z,7.00
2023-05-04T19:25:52.805Z,4.90
2023-05-04T19:28:19.857Z,4.38
2023-05-04T19:30:54.020Z,3.75
2023-05-04T19:33:22.215Z,7.03
2023-05-04T19:35:57.861Z,4.35
2023-05-04T19:38:34.822Z,6.07
2023-05-04T19:41:11.151Z,8.00
2023-05-04T19:43:48.200Z,4.32
2023-05-04T19:46:15.288Z,8.15
2023-05-04T19:48:42.692Z,4.30
2023-05-04T19:51:15.839Z,6.63
2023-05-04T19:53:44.163Z,5.22
2023-05-04T19:56:17.894Z,4.65
2023-05-04T19:58:44.985Z,7.63
2023-05-04T20:01:18.863Z,5.25
2023-05-04T20:03:45.935Z,5.13
2023-05-04T20:06:19.850Z,4.05
2023-05-04T20:09:00.914Z,4.43
2023-05-04T20:11:34.828Z,6.05
2023-05-04T20:14:09.799Z,4.68
2023-05-04T20:16:37.484Z,5.30
2023-05-04T20:19:10.796Z,7.00
2023-05-04T20:21:37.792Z,5.15
2023-05-04T20:24:11.874Z,6.45
2023-05-04T20:26:39.119Z,8.10
2023-05-04T20:29:13.136Z,3.65
2023-05-04T20:31:41.444Z,5.90
2023-05-04T20:34:08.546Z,4.95
2023-05-04T20:36:43.843Z,7.20
2023-05-04T20:39:11.405Z,7.05
2023-05-04T20:41:44.856Z,5.55
2023-05-04T20:44:12.079Z,6.38
2023-05-04T20:46:45.800Z,5.43
2023-05-04T20:49:19.820Z,6.68
2023-05-04T20:51:49.322Z,5.43
2023-05-04T20:54:23.848Z,5.43
2023-05-04T20:56:51.039Z,5.88
2023-05-04T20:59:24.849Z,5.28
2023-05-04T21:01:51.910Z,5.10
2023-05-04T21:04:27.865Z,4.03
2023-05-04T21:07:14.828Z,3.47
2023-05-04T21:09:49.990Z,4.43
2023-05-04T21:12:17.528Z,6.10
2023-05-04T21:14:45.856Z,6.43
2023-05-04T21:17:19.821Z,6.82
2023-05-04T21:19:47.152Z,8.02
2023-05-04T21:22:23.871Z,4.13
2023-05-04T21:24:51.063Z,5.50
2023-05-04T21:27:24.868Z,6.13
2023-05-04T21:29:58.809Z,3.78
2023-05-04T21:32:33.850Z,4.38
2023-05-04T21:35:08.858Z,5.40
2023-05-04T21:37:42.816Z,4.85
2023-05-04T21:40:11.053Z,5.25
2023-05-04T21:42:38.122Z,6.45
2023-05-04T21:45:12.818Z,7.25
2023-05-04T21:47:46.849Z,5.28
2023-05-04T21:50:22.266Z,7.32
2023-05-04T21:52:55.824Z,4.78
2023-05-04T21:55:29.839Z,5.95
2023-05-04T21:57:59.272Z,5.65
2023-05-04T22:00:26.836Z,5.57
2023-05-04T22:03:01.974Z,4.07
2023-05-04T22:05:35.854Z,3.50
2023-05-04T22:08:09.856Z,4.90
2023-05-04T22:10:37.503Z,6.70
2023-05-04T22:13:12.397Z,3.85
2023-05-04T22:15:49.305Z,4.90
2023-05-04T22:18:23.907Z,4.95
2023-05-04T22:20:57.859Z,4.25
2023-05-04T22:23:31.821Z,3.90
2023-05-04T22:25:58.887Z,5.57
2023-05-04T22:28:33.827Z,3.97
2023-05-04T22:31:07.929Z,3.03
2023-05-04T22:33:35.118Z,4.18
2023-05-04T22:36:09.886Z,5.88
2023-05-04T22:38:36.938Z,3.92
2023-05-04T22:41:10.849Z,3.65
2023-05-04T22:43:37.919Z,3.50
2023-05-04T22:46:05.055Z,3.13
2023-05-04T22:48:40.906Z,4.47
2023-05-04T22:51:14.840Z,4.43
2023-05-04T22:53:48.846Z,3.67
2023-05-04T22:56:16.104Z,3.60
2023-05-04T22:58:52.941Z,4.70
2023-05-04T23:01:20.050Z,3.65
2023-05-04T23:03:54.038Z,4.65
2023-05-04T23:06:27.861Z,4.68
2023-05-04T23:09:01.876Z,3.60
2023-05-04T23:11:29.269Z,7.88
2023-05-04T23:14:02.908Z,3.38
2023-05-04T23:16:39.378Z,5.70
2023-05-04T23:19:12.921Z,4.60
2023-05-04T23:21:39.942Z,3.47
2023-05-04T23:24:15.946Z,5.25
2023-05-04T23:26:42.946Z,7.10
2023-05-04T23:29:16.918Z,3.95
2023-05-04T23:31:44.066Z,6.70
2023-05-04T23:34:17.855Z,3.47
2023-05-04T23:36:54.209Z,4.35
2023-05-04T23:39:21.576Z,4.93
2023-05-04T23:41:54.887Z,3.92
2023-05-04T23:44:22.042Z,4.70
2023-05-04T23:46:55.913Z,4.68
2023-05-04T23:49:29.836Z,5.22
2023-05-04T23:51:57.000Z,6.32
2023-05-04T23:54:30.869Z,3.92
2023-05-04T23:56:59.304Z,4.82
2023-05-04T23:59:26.838Z,9.50
